sensor_id;sensor_type;location;lat;lon;timestamp;P1;durP1;ratioP1;P2;durP2;ratioP2
69714;SDS011;56981;53.532;49.398;2022-08-04T00:00:27;21.05;;;9.10;;
69714;SDS011;56981;53.532;49.398;2022-08-04T00:05:57;22.15;;;9.38;;
69714;SDS011;56981;53.532;49.398;2022-08-04T00:11:20;34.00;;;11.93;;
69714;SDS011;56981;53.532;49.398;2022-08-04T00:13:49;26.27;;;10.52;;
69714;SDS011;56981;53.532;49.398;2022-08-04T00:16:32;26.95;;;11.52;;
69714;SDS011;56981;53.532;49.398;2022-08-04T00:19:11;27.92;;;10.68;;
69714;SDS011;56981;53.532;49.398;2022-08-04T00:21:45;26.50;;;10.45;;
69714;SDS011;56981;53.532;49.398;2022-08-04T00:24:16;33.45;;;10.88;;
69714;SDS011;56981;53.532;49.398;2022-08-04T00:26:44;26.30;;;10.77;;
69714;SDS011;56981;53.532;49.398;2022-08-04T00:29:10;25.42;;;9.57;;
69714;SDS011;56981;53.532;49.398;2022-08-04T00:31:37;24.98;;;9.60;;
69714;SDS011;56981;53.532;49.398;2022-08-04T00:34:05;22.23;;;9.38;;
69714;SDS011;56981;53.532;49.398;2022-08-04T00:36:34;21.17;;;9.57;;
69714;SDS011;56981;53.532;49.398;2022-08-04T00:39:00;22.85;;;8.60;;
69714;SDS011;56981;53.532;49.398;2022-08-04T00:41:47;19.50;;;9.43;;
69714;SDS011;56981;53.532;49.398;2022-08-04T00:50:19;28.45;;;10.57;;
69714;SDS011;56981;53.532;49.398;2022-08-04T01:01:43;21.55;;;8.52;;
69714;SDS011;56981;53.532;49.398;2022-08-04T01:15:24;21.73;;;8.90;;
69714;SDS011;56981;53.532;49.398;2022-08-04T01:18:05;19.90;;;9.45;;
69714;SDS011;56981;53.532;49.398;2022-08-04T01:20:33;23.42;;;9.27;;
69714;SDS011;56981;53.532;49.398;2022-08-04T01:34:02;26.90;;;10.13;;
69714;SDS011;56981;53.532;49.398;2022-08-04T01:36:34;24.27;;;11.18;;
69714;SDS011;56981;53.532;49.398;2022-08-04T01:39:00;29.25;;;10.60;;
69714;SDS011;56981;53.532;49.398;2022-08-04T01:41:51;24.30;;;10.13;;
69714;SDS011;56981;53.532;49.398;2022-08-04T01:44:18;25.15;;;10.10;;
69714;SDS011;56981;53.532;49.398;2022-08-04T01:46:48;27.00;;;10.10;;
69714;SDS011;56981;53.532;49.398;2022-08-04T01:49:16;27.77;;;10.93;;
69714;SDS011;56981;53.532;49.398;2022-08-04T01:51:45;30.58;;;10.70;;
69714;SDS011;56981;53.532;49.398;2022-08-04T01:54:15;29.05;;;11.32;;
69714;SDS011;56981;53.532;49.398;2022-08-04T01:56:43;22.65;;;10.70;;
69714;SDS011;56981;53.532;49.398;2022-08-04T01:59:12;29.65;;;10.13;;
69714;SDS011;56981;53.532;49.398;2022-08-04T02:01:42;28.63;;;10.70;;
69714;SDS011;56981;53.532;49.398;2022-08-04T02:04:12;23.75;;;10.57;;
69714;SDS011;56981;53.532;49.398;2022-08-04T02:12:29;20.98;;;9.75;;
69714;SDS011;56981;53.532;49.398;2022-08-04T02:17:45;23.95;;;9.70;;
69714;SDS011;56981;53.532;49.398;2022-08-04T02:23:09;12.90;;;7.25;;
69714;SDS011;56981;53.532;49.398;2022-08-04T02:25:42;12.73;;;7.70;;
69714;SDS011;56981;53.532;49.398;2022-08-04T02:28:15;15.00;;;7.68;;
69714;SDS011;56981;53.532;49.398;2022-08-04T02:33:22;12.00;;;8.68;;
69714;SDS011;56981;53.532;49.398;2022-08-04T02:35:55;10.70;;;7.53;;
69714;SDS011;56981;53.532;49.398;2022-08-04T02:38:51;13.43;;;9.30;;
69714;SDS011;56981;53.532;49.398;2022-08-04T02:41:15;15.15;;;8.18;;
69714;SDS011;56981;53.532;49.398;2022-08-04T02:43:46;12.60;;;9.02;;
69714;SDS011;56981;53.532;49.398;2022-08-04T02:46:17;12.00;;;8.18;;
69714;SDS011;56981;53.532;49.398;2022-08-04T02:48:46;11.88;;;8.35;;
69714;SDS011;56981;53.532;49.398;2022-08-04T02:51:14;14.27;;;8.93;;
69714;SDS011;56981;53.532;49.398;2022-08-04T02:53:42;14.88;;;7.93;;
69714;SDS011;56981;53.532;49.398;2022-08-04T02:56:09;18.13;;;10.10;;
69714;SDS011;56981;53.532;49.398;2022-08-04T02:58:38;20.52;;;10.02;;
69714;SDS011;56981;53.532;49.398;2022-08-04T03:01:07;23.50;;;10.40;;
69714;SDS011;56981;53.532;49.398;2022-08-04T03:03:40;19.08;;;13.23;;
69714;SDS011;56981;53.532;49.398;2022-08-04T03:09:16;11.32;;;8.95;;
69714;SDS011;56981;53.532;49.398;2022-08-04T03:34:54;17.33;;;10.13;;
69714;SDS011;56981;53.532;49.398;2022-08-04T04:01:08;19.23;;;14.77;;
69714;SDS011;56981;53.532;49.398;2022-08-04T04:06:40;20.48;;;14.93;;
69714;SDS011;56981;53.532;49.398;2022-08-04T04:20:59;34.42;;;16.73;;
69714;SDS011;56981;53.532;49.398;2022-08-04T04:51:51;20.80;;;15.80;;
69714;SDS011;56981;53.532;49.398;2022-08-04T04:59:40;37.28;;;19.42;;
69714;SDS011;56981;53.532;49.398;2022-08-04T05:08:03;51.28;;;24.10;;
69714;SDS011;56981;53.532;49.398;2022-08-04T05:13:43;81.43;;;26.00;;
69714;SDS011;56981;53.532;49.398;2022-08-04T05:18:56;61.35;;;29.55;;
69714;SDS011;56981;53.532;49.398;2022-08-04T05:29:45;49.60;;;26.02;;
69714;SDS011;56981;53.532;49.398;2022-08-04T05:32:10;51.50;;;23.17;;
69714;SDS011;56981;53.532;49.398;2022-08-04T05:34:40;43.15;;;21.88;;
69714;SDS011;56981;53.532;49.398;2022-08-04T05:37:10;36.47;;;19.80;;
69714;SDS011;56981;53.532;49.398;2022-08-04T05:39:48;44.30;;;21.40;;
69714;SDS011;56981;53.532;49.398;2022-08-04T05:42:20;42.38;;;21.88;;
69714;SDS011;56981;53.532;49.398;2022-08-04T05:44:47;43.90;;;21.10;;
69714;SDS011;56981;53.532;49.398;2022-08-04T05:47:13;41.17;;;19.77;;
69714;SDS011;56981;53.532;49.398;2022-08-04T05:49:41;35.92;;;18.50;;
69714;SDS011;56981;53.532;49.398;2022-08-04T05:52:09;41.65;;;22.27;;
69714;SDS011;56981;53.532;49.398;2022-08-04T05:54:37;32.28;;;19.52;;
69714;SDS011;56981;53.532;49.398;2022-08-04T05:57:05;37.88;;;19.95;;
69714;SDS011;56981;53.532;49.398;2022-08-04T05:59:33;43.25;;;22.83;;
69714;SDS011;56981;53.532;49.398;2022-08-04T06:02:02;43.80;;;23.60;;
69714;SDS011;56981;53.532;49.398;2022-08-04T06:04:47;52.65;;;25.02;;
69714;SDS011;56981;53.532;49.398;2022-08-04T06:07:15;36.38;;;21.15;;
69714;SDS011;56981;53.532;49.398;2022-08-04T06:09:42;43.38;;;22.92;;
69714;SDS011;56981;53.532;49.398;2022-08-04T06:12:52;44.45;;;23.83;;
69714;SDS011;56981;53.532;49.398;2022-08-04T06:15:05;34.38;;;19.05;;
69714;SDS011;56981;53.532;49.398;2022-08-04T06:17:35;34.20;;;20.30;;
69714;SDS011;56981;53.532;49.398;2022-08-04T06:20:04;38.33;;;19.52;;
69714;SDS011;56981;53.532;49.398;2022-08-04T06:22:33;32.38;;;18.23;;
69714;SDS011;56981;53.532;49.398;2022-08-04T06:27:29;35.38;;;17.27;;
69714;SDS011;56981;53.532;49.398;2022-08-04T06:29:56;21.65;;;14.32;;
69714;SDS011;56981;53.532;49.398;2022-08-04T06:32:24;20.73;;;13.20;;
69714;SDS011;56981;53.532;49.398;2022-08-04T06:34:56;21.05;;;11.75;;
69714;SDS011;56981;53.532;49.398;2022-08-04T06:37:24;20.45;;;12.38;;
69714;SDS011;56981;53.532;49.398;2022-08-04T06:39:51;23.95;;;12.90;;
69714;SDS011;56981;53.532;49.398;2022-08-04T06:42:20;25.90;;;14.52;;
69714;SDS011;56981;53.532;49.398;2022-08-04T06:44:48;19.80;;;12.23;;
69714;SDS011;56981;53.532;49.398;2022-08-04T06:47:17;17.00;;;12.13;;
69714;SDS011;56981;53.532;49.398;2022-08-04T06:49:46;24.95;;;14.30;;
69714;SDS011;56981;53.532;49.398;2022-08-04T06:52:14;54.92;;;15.18;;
69714;SDS011;56981;53.532;49.398;2022-08-04T06:54:43;43.40;;;13.10;;
69714;SDS011;56981;53.532;49.398;2022-08-04T06:57:13;19.52;;;12.45;;
69714;SDS011;56981;53.532;49.398;2022-08-04T06:59:44;29.77;;;15.23;;
69714;SDS011;56981;53.532;49.398;2022-08-04T07:02:17;56.90;;;16.90;;
69714;SDS011;56981;53.532;49.398;2022-08-04T07:04:52;24.20;;;13.40;;
69714;SDS011;56981;53.532;49.398;2022-08-04T07:07:18;5.13;;;4.57;;
69714;SDS011;56981;53.532;49.398;2022-08-04T07:12:11;5.00;;;4.53;;
69714;SDS011;56981;53.532;49.398;2022-08-04T07:14:38;7.15;;;5.68;;
69714;SDS011;56981;53.532;49.398;2022-08-04T07:17:06;6.80;;;6.07;;
69714;SDS011;56981;53.532;49.398;2022-08-04T07:19:34;7.00;;;6.30;;
69714;SDS011;56981;53.532;49.398;2022-08-04T07:22:01;10.50;;;6.45;;
69714;SDS011;56981;53.532;49.398;2022-08-04T07:24:30;8.00;;;6.07;;
69714;SDS011;56981;53.532;49.398;2022-08-04T07:26:57;10.55;;;5.65;;
69714;SDS011;56981;53.532;49.398;2022-08-04T07:29:23;5.82;;;5.10;;
69714;SDS011;56981;53.532;49.398;2022-08-04T07:31:50;5.40;;;4.55;;
69714;SDS011;56981;53.532;49.398;2022-08-04T07:34:18;5.72;;;4.55;;
69714;SDS011;56981;53.532;49.398;2022-08-04T07:36:44;16.23;;;5.22;;
69714;SDS011;56981;53.532;49.398;2022-08-04T07:39:11;7.47;;;5.03;;
69714;SDS011;56981;53.532;49.398;2022-08-04T07:41:38;10.98;;;4.80;;
69714;SDS011;56981;53.532;49.398;2022-08-04T07:44:07;18.15;;;6.28;;
69714;SDS011;56981;53.532;49.398;2022-08-04T07:46:34;5.43;;;4.35;;
69714;SDS011;56981;53.532;49.398;2022-08-04T07:49:01;8.40;;;4.13;;
69714;SDS011;56981;53.532;49.398;2022-08-04T07:51:28;9.52;;;4.50;;
69714;SDS011;56981;53.532;49.398;2022-08-04T07:53:55;3.58;;;3.15;;
69714;SDS011;56981;53.532;49.398;2022-08-04T07:56:22;3.20;;;2.90;;
69714;SDS011;56981;53.532;49.398;2022-08-04T07:58:50;5.30;;;3.20;;
69714;SDS011;56981;53.532;49.398;2022-08-04T08:01:17;4.25;;;3.80;;
69714;SDS011;56981;53.532;49.398;2022-08-04T08:03:43;3.50;;;3.20;;
69714;SDS011;56981;53.532;49.398;2022-08-04T08:06:10;7.15;;;6.45;;
69714;SDS011;56981;53.532;49.398;2022-08-04T08:08:37;5.28;;;3.80;;
69714;SDS011;56981;53.532;49.398;2022-08-04T08:11:04;4.43;;;3.20;;
69714;SDS011;56981;53.532;49.398;2022-08-04T08:13:31;5.93;;;3.65;;
69714;SDS011;56981;53.532;49.398;2022-08-04T08:15:58;5.05;;;3.80;;
69714;SDS011;56981;53.532;49.398;2022-08-04T08:18:26;5.10;;;3.30;;
69714;SDS011;56981;53.532;49.398;2022-08-04T08:20:52;4.47;;;3.58;;
69714;SDS011;56981;53.532;49.398;2022-08-04T08:23:19;3.38;;;3.08;;
69714;SDS011;56981;53.532;49.398;2022-08-04T08:25:46;3.50;;;2.45;;
69714;SDS011;56981;53.532;49.398;2022-08-04T08:28:12;3.80;;;3.03;;
69714;SDS011;56981;53.532;49.398;2022-08-04T08:30:40;3.85;;;2.80;;
69714;SDS011;56981;53.532;49.398;2022-08-04T08:33:06;5.10;;;2.90;;
69714;SDS011;56981;53.532;49.398;2022-08-04T08:35:40;3.30;;;2.42;;
69714;SDS011;56981;53.532;49.398;2022-08-04T08:38:13;3.13;;;2.92;;
69714;SDS011;56981;53.532;49.398;2022-08-04T08:41:05;3.45;;;3.00;;
69714;SDS011;56981;53.532;49.398;2022-08-04T08:47:00;4.50;;;3.35;;
69714;SDS011;56981;53.532;49.398;2022-08-04T08:50:09;4.50;;;3.20;;
69714;SDS011;56981;53.532;49.398;2022-08-04T08:53:01;3.30;;;2.95;;
69714;SDS011;56981;53.532;49.398;2022-08-04T08:59:19;7.82;;;6.20;;
69714;SDS011;56981;53.532;49.398;2022-08-04T09:10:38;19.88;;;10.60;;
69714;SDS011;56981;53.532;49.398;2022-08-04T09:13:05;61.17;;;12.25;;
69714;SDS011;56981;53.532;49.398;2022-08-04T09:24:12;29.13;;;9.68;;
69714;SDS011;56981;53.532;49.398;2022-08-04T09:26:49;12.13;;;8.65;;
69714;SDS011;56981;53.532;49.398;2022-08-04T09:40:47;9.07;;;6.95;;
69714;SDS011;56981;53.532;49.398;2022-08-04T09:43:28;32.67;;;8.60;;
69714;SDS011;56981;53.532;49.398;2022-08-04T09:46:04;11.57;;;7.13;;
69714;SDS011;56981;53.532;49.398;2022-08-04T09:54:22;14.45;;;6.95;;
69714;SDS011;56981;53.532;49.398;2022-08-04T09:59:44;16.23;;;5.60;;
69714;SDS011;56981;53.532;49.398;2022-08-04T10:02:22;36.78;;;6.03;;
69714;SDS011;56981;53.532;49.398;2022-08-04T10:04:50;7.65;;;4.28;;
69714;SDS011;56981;53.532;49.398;2022-08-04T10:07:34;5.35;;;4.40;;
69714;SDS011;56981;53.532;49.398;2022-08-04T10:27:23;9.90;;;4.80;;
69714;SDS011;56981;53.532;49.398;2022-08-04T10:30:15;14.60;;;5.68;;
69714;SDS011;56981;53.532;49.398;2022-08-04T10:35:10;6.63;;;5.22;;
69714;SDS011;56981;53.532;49.398;2022-08-04T10:37:47;12.50;;;4.93;;
69714;SDS011;56981;53.532;49.398;2022-08-04T10:48:48;39.78;;;5.72;;
69714;SDS011;56981;53.532;49.398;2022-08-04T10:51:46;5.03;;;3.22;;
69714;SDS011;56981;53.532;49.398;2022-08-04T10:54:36;3.83;;;2.97;;
69714;SDS011;56981;53.532;49.398;2022-08-04T10:57:34;4.50;;;3.03;;
69714;SDS011;56981;53.532;49.398;2022-08-04T11:00:06;4.30;;;3.13;;
69714;SDS011;56981;53.532;49.398;2022-08-04T11:02:36;3.28;;;2.97;;
69714;SDS011;56981;53.532;49.398;2022-08-04T11:08:04;6.97;;;3.50;;
69714;SDS011;56981;53.532;49.398;2022-08-04T11:10:39;5.20;;;3.63;;
69714;SDS011;56981;53.532;49.398;2022-08-04T11:13:10;5.45;;;3.53;;
69714;SDS011;56981;53.532;49.398;2022-08-04T11:18:17;8.38;;;3.72;;
69714;SDS011;56981;53.532;49.398;2022-08-04T11:21:09;6.07;;;3.85;;
69714;SDS011;56981;53.532;49.398;2022-08-04T11:23:42;5.43;;;3.30;;
69714;SDS011;56981;53.532;49.398;2022-08-04T11:26:14;9.75;;;3.47;;
69714;SDS011;56981;53.532;49.398;2022-08-04T11:28:56;42.15;;;5.32;;
69714;SDS011;56981;53.532;49.398;2022-08-04T11:31:39;7.18;;;3.03;;
69714;SDS011;56981;53.532;49.398;2022-08-04T11:39:52;15.95;;;11.07;;
69714;SDS011;56981;53.532;49.398;2022-08-04T11:42:28;46.70;;;6.25;;
69714;SDS011;56981;53.532;49.398;2022-08-04T11:44:59;4.78;;;3.42;;
69714;SDS011;56981;53.532;49.398;2022-08-04T11:47:32;7.57;;;3.60;;
69714;SDS011;56981;53.532;49.398;2022-08-04T11:50:20;6.93;;;3.60;;
69714;SDS011;56981;53.532;49.398;2022-08-04T11:52:54;6.70;;;3.42;;
69714;SDS011;56981;53.532;49.398;2022-08-04T11:55:23;7.18;;;3.22;;
69714;SDS011;56981;53.532;49.398;2022-08-04T11:57:51;6.82;;;3.72;;
69714;SDS011;56981;53.532;49.398;2022-08-04T12:00:18;3.83;;;3.40;;
69714;SDS011;56981;53.532;49.398;2022-08-04T12:05:35;4.85;;;3.67;;
69714;SDS011;56981;53.532;49.398;2022-08-04T12:08:35;7.72;;;4.35;;
69714;SDS011;56981;53.532;49.398;2022-08-04T12:14:25;4.30;;;3.85;;
69714;SDS011;56981;53.532;49.398;2022-08-04T12:17:14;4.20;;;3.80;;
69714;SDS011;56981;53.532;49.398;2022-08-04T12:20:03;5.07;;;3.80;;
69714;SDS011;56981;53.532;49.398;2022-08-04T12:22:36;8.02;;;4.22;;
69714;SDS011;56981;53.532;49.398;2022-08-04T12:25:06;8.02;;;4.45;;
69714;SDS011;56981;53.532;49.398;2022-08-04T12:27:44;8.90;;;5.00;;
69714;SDS011;56981;53.532;49.398;2022-08-04T12:30:17;9.60;;;4.97;;
69714;SDS011;56981;53.532;49.398;2022-08-04T12:32:57;12.02;;;4.22;;
69714;SDS011;56981;53.532;49.398;2022-08-04T12:38:13;10.93;;;5.38;;
69714;SDS011;56981;53.532;49.398;2022-08-04T12:40:41;6.22;;;4.35;;
69714;SDS011;56981;53.532;49.398;2022-08-04T12:43:16;5.38;;;4.60;;
69714;SDS011;56981;53.532;49.398;2022-08-04T12:46:05;7.60;;;4.93;;
69714;SDS011;56981;53.532;49.398;2022-08-04T12:48:34;11.38;;;5.20;;
69714;SDS011;56981;53.532;49.398;2022-08-04T12:51:03;10.77;;;6.20;;
69714;SDS011;56981;53.532;49.398;2022-08-04T12:56:03;9.10;;;5.28;;
69714;SDS011;56981;53.532;49.398;2022-08-04T12:58:32;8.23;;;4.75;;
69714;SDS011;56981;53.532;49.398;2022-08-04T13:01:07;5.45;;;4.95;;
69714;SDS011;56981;53.532;49.398;2022-08-04T13:03:37;5.95;;;4.78;;
69714;SDS011;56981;53.532;49.398;2022-08-04T13:06:07;8.93;;;5.95;;
69714;SDS011;56981;53.532;49.398;2022-08-04T13:08:37;9.35;;;5.28;;
69714;SDS011;56981;53.532;49.398;2022-08-04T13:11:05;5.07;;;4.40;;
69714;SDS011;56981;53.532;49.398;2022-08-04T13:13:34;9.48;;;6.10;;
69714;SDS011;56981;53.532;49.398;2022-08-04T13:16:04;10.38;;;6.53;;
69714;SDS011;56981;53.532;49.398;2022-08-04T13:18:37;7.25;;;5.30;;
69714;SDS011;56981;53.532;49.398;2022-08-04T13:21:09;7.82;;;6.05;;
69714;SDS011;56981;53.532;49.398;2022-08-04T13:23:37;8.80;;;6.10;;
69714;SDS011;56981;53.532;49.398;2022-08-04T13:26:05;8.25;;;6.88;;
69714;SDS011;56981;53.532;49.398;2022-08-04T13:28:32;11.52;;;7.30;;
69714;SDS011;56981;53.532;49.398;2022-08-04T13:30:59;9.60;;;7.03;;
69714;SDS011;56981;53.532;49.398;2022-08-04T13:33:30;7.85;;;6.47;;
69714;SDS011;56981;53.532;49.398;2022-08-04T13:35:59;8.48;;;6.57;;
69714;SDS011;56981;53.532;49.398;2022-08-04T13:38:27;9.75;;;7.00;;
69714;SDS011;56981;53.532;49.398;2022-08-04T13:41:01;8.70;;;7.00;;
69714;SDS011;56981;53.532;49.398;2022-08-04T13:43:30;9.25;;;7.47;;
69714;SDS011;56981;53.532;49.398;2022-08-04T13:46:03;9.45;;;7.53;;
69714;SDS011;56981;53.532;49.398;2022-08-04T13:48:34;10.90;;;6.75;;
69714;SDS011;56981;53.532;49.398;2022-08-04T13:51:03;8.57;;;5.63;;
69714;SDS011;56981;53.532;49.398;2022-08-04T13:53:31;7.20;;;5.85;;
69714;SDS011;56981;53.532;49.398;2022-08-04T13:55:59;29.35;;;18.95;;
69714;SDS011;56981;53.532;49.398;2022-08-04T13:58:29;9.68;;;7.15;;
69714;SDS011;56981;53.532;49.398;2022-08-04T14:00:59;7.70;;;6.65;;
69714;SDS011;56981;53.532;49.398;2022-08-04T14:03:39;12.50;;;7.60;;
69714;SDS011;56981;53.532;49.398;2022-08-04T14:06:17;10.93;;;8.07;;
69714;SDS011;56981;53.532;49.398;2022-08-04T14:08:57;12.68;;;7.35;;
69714;SDS011;56981;53.532;49.398;2022-08-04T14:11:35;16.52;;;11.55;;
69714;SDS011;56981;53.532;49.398;2022-08-04T14:14:13;13.98;;;9.20;;
69714;SDS011;56981;53.532;49.398;2022-08-04T14:19:56;17.80;;;9.55;;
69714;SDS011;56981;53.532;49.398;2022-08-04T14:25:27;9.93;;;7.05;;
69714;SDS011;56981;53.532;49.398;2022-08-04T14:27:49;10.40;;;7.05;;
69714;SDS011;56981;53.532;49.398;2022-08-04T14:30:21;9.00;;;6.90;;
69714;SDS011;56981;53.532;49.398;2022-08-04T14:35:29;10.63;;;6.78;;
69714;SDS011;56981;53.532;49.398;2022-08-04T14:38:06;8.27;;;5.68;;
69714;SDS011;56981;53.532;49.398;2022-08-04T14:40:37;11.07;;;6.10;;
69714;SDS011;56981;53.532;49.398;2022-08-04T14:43:05;8.85;;;5.32;;
69714;SDS011;56981;53.532;49.398;2022-08-04T14:45:33;6.90;;;6.03;;
69714;SDS011;56981;53.532;49.398;2022-08-04T14:48:10;7.90;;;5.45;;
69714;SDS011;56981;53.532;49.398;2022-08-04T14:50:44;7.53;;;5.40;;
69714;SDS011;56981;53.532;49.398;2022-08-04T14:53:14;11.25;;;5.88;;
69714;SDS011;56981;53.532;49.398;2022-08-04T14:55:45;8.88;;;5.95;;
69714;SDS011;56981;53.532;49.398;2022-08-04T14:58:19;9.93;;;5.95;;
69714;SDS011;56981;53.532;49.398;2022-08-04T15:00:53;7.03;;;5.97;;
69714;SDS011;56981;53.532;49.398;2022-08-04T15:03:21;9.82;;;7.47;;
69714;SDS011;56981;53.532;49.398;2022-08-04T15:05:49;21.20;;;15.32;;
69714;SDS011;56981;53.532;49.398;2022-08-04T15:08:16;25.33;;;14.55;;
69714;SDS011;56981;53.532;49.398;2022-08-04T15:10:43;23.92;;;16.30;;
69714;SDS011;56981;53.532;49.398;2022-08-04T15:13:10;15.25;;;12.15;;
69714;SDS011;56981;53.532;49.398;2022-08-04T15:15:39;13.52;;;8.52;;
69714;SDS011;56981;53.532;49.398;2022-08-04T15:18:10;8.52;;;6.47;;
69714;SDS011;56981;53.532;49.398;2022-08-04T15:20:37;24.35;;;17.00;;
69714;SDS011;56981;53.532;49.398;2022-08-04T15:23:06;16.40;;;10.85;;
69714;SDS011;56981;53.532;49.398;2022-08-04T15:25:46;15.55;;;11.90;;
69714;SDS011;56981;53.532;49.398;2022-08-04T15:28:16;16.33;;;11.65;;
69714;SDS011;56981;53.532;49.398;2022-08-04T15:30:47;13.27;;;8.60;;
69714;SDS011;56981;53.532;49.398;2022-08-04T15:33:15;18.23;;;11.43;;
69714;SDS011;56981;53.532;49.398;2022-08-04T15:35:49;35.75;;;21.50;;
69714;SDS011;56981;53.532;49.398;2022-08-04T15:41:04;42.50;;;30.65;;
69714;SDS011;56981;53.532;49.398;2022-08-04T15:43:49;40.17;;;28.98;;
69714;SDS011;56981;53.532;49.398;2022-08-04T15:46:46;35.33;;;24.15;;
69714;SDS011;56981;53.532;49.398;2022-08-04T15:49:18;22.15;;;16.20;;
69714;SDS011;56981;53.532;49.398;2022-08-04T15:51:46;28.95;;;21.17;;
69714;SDS011;56981;53.532;49.398;2022-08-04T15:54:28;32.53;;;22.42;;
69714;SDS011;56981;53.532;49.398;2022-08-04T15:56:55;25.55;;;19.88;;
69714;SDS011;56981;53.532;49.398;2022-08-04T16:05:31;12.32;;;8.55;;
69714;SDS011;56981;53.532;49.398;2022-08-04T16:07:57;13.30;;;8.55;;
69714;SDS011;56981;53.532;49.398;2022-08-04T16:13:03;10.73;;;6.95;;
69714;SDS011;56981;53.532;49.398;2022-08-04T16:15:43;14.95;;;7.30;;
69714;SDS011;56981;53.532;49.398;2022-08-04T16:18:48;12.80;;;7.45;;
69714;SDS011;56981;53.532;49.398;2022-08-04T16:21:18;8.85;;;7.05;;
69714;SDS011;56981;53.532;49.398;2022-08-04T16:29:23;11.00;;;8.18;;
69714;SDS011;56981;53.532;49.398;2022-08-04T16:34:37;15.43;;;8.02;;
69714;SDS011;56981;53.532;49.398;2022-08-04T16:37:18;16.30;;;9.90;;
69714;SDS011;56981;53.532;49.398;2022-08-04T16:39:46;14.80;;;8.13;;
69714;SDS011;56981;53.532;49.398;2022-08-04T16:42:31;15.45;;;8.68;;
69714;SDS011;56981;53.532;49.398;2022-08-04T16:48:00;20.70;;;8.30;;
69714;SDS011;56981;53.532;49.398;2022-08-04T16:50:25;15.15;;;8.55;;
69714;SDS011;56981;53.532;49.398;2022-08-04T16:52:53;13.70;;;8.10;;
69714;SDS011;56981;53.532;49.398;2022-08-04T16:55:20;15.60;;;9.20;;
69714;SDS011;56981;53.532;49.398;2022-08-04T16:57:48;14.65;;;9.40;;
69714;SDS011;56981;53.532;49.398;2022-08-04T17:00:16;18.80;;;10.57;;
69714;SDS011;56981;53.532;49.398;2022-08-04T17:02:51;38.42;;;20.55;;
69714;SDS011;56981;53.532;49.398;2022-08-04T17:05:21;64.88;;;33.35;;
69714;SDS011;56981;53.532;49.398;2022-08-04T17:07:49;54.05;;;30.13;;
69714;SDS011;56981;53.532;49.398;2022-08-04T17:12:56;28.92;;;17.60;;
69714;SDS011;56981;53.532;49.398;2022-08-04T17:15:22;22.45;;;13.13;;
69714;SDS011;56981;53.532;49.398;2022-08-04T17:17:50;30.20;;;15.25;;
69714;SDS011;56981;53.532;49.398;2022-08-04T17:20:16;24.48;;;12.00;;
69714;SDS011;56981;53.532;49.398;2022-08-04T17:22:51;21.63;;;11.32;;
69714;SDS011;56981;53.532;49.398;2022-08-04T17:25:17;16.48;;;9.27;;
69714;SDS011;56981;53.532;49.398;2022-08-04T17:27:43;12.70;;;8.27;;
69714;SDS011;56981;53.532;49.398;2022-08-04T17:30:25;13.27;;;9.15;;
69714;SDS011;56981;53.532;49.398;2022-08-04T17:32:52;12.95;;;8.20;;
69714;SDS011;56981;53.532;49.398;2022-08-04T17:35:18;12.05;;;8.75;;
69714;SDS011;56981;53.532;49.398;2022-08-04T17:37:45;16.27;;;8.82;;
69714;SDS011;56981;53.532;49.398;2022-08-04T17:40:13;13.23;;;8.10;;
69714;SDS011;56981;53.532;49.398;2022-08-04T17:42:40;15.45;;;9.32;;
69714;SDS011;56981;53.532;49.398;2022-08-04T17:45:07;14.43;;;9.38;;
69714;SDS011;56981;53.532;49.398;2022-08-04T17:47:47;18.10;;;10.40;;
69714;SDS011;56981;53.532;49.398;2022-08-04T17:50:27;13.18;;;9.55;;
69714;SDS011;56981;53.532;49.398;2022-08-04T17:53:01;18.33;;;9.57;;
69714;SDS011;56981;53.532;49.398;2022-08-04T17:56:03;13.98;;;9.32;;
69714;SDS011;56981;53.532;49.398;2022-08-04T17:58:22;16.67;;;9.32;;
69714;SDS011;56981;53.532;49.398;2022-08-04T18:00:57;16.60;;;9.50;;
69714;SDS011;56981;53.532;49.398;2022-08-04T18:03:27;16.20;;;10.07;;
69714;SDS011;56981;53.532;49.398;2022-08-04T18:05:53;15.73;;;10.15;;
69714;SDS011;56981;53.532;49.398;2022-08-04T18:08:23;15.68;;;9.95;;
69714;SDS011;56981;53.532;49.398;2022-08-04T18:10:53;15.93;;;9.88;;
69714;SDS011;56981;53.532;49.398;2022-08-04T18:13:20;15.27;;;10.00;;
69714;SDS011;56981;53.532;49.398;2022-08-04T18:15:46;19.77;;;10.02;;
69714;SDS011;56981;53.532;49.398;2022-08-04T18:18:19;23.63;;;11.20;;
69714;SDS011;56981;53.532;49.398;2022-08-04T18:20:47;29.02;;;10.63;;
69714;SDS011;56981;53.532;49.398;2022-08-04T18:23:13;17.33;;;10.15;;
69714;SDS011;56981;53.532;49.398;2022-08-04T18:25:46;16.38;;;9.98;;
69714;SDS011;56981;53.532;49.398;2022-08-04T18:28:13;14.43;;;8.50;;
69714;SDS011;56981;53.532;49.398;2022-08-04T18:30:39;13.43;;;8.60;;
69714;SDS011;56981;53.532;49.398;2022-08-04T18:33:06;13.52;;;9.63;;
69714;SDS011;56981;53.532;49.398;2022-08-04T18:35:33;15.65;;;10.05;;
69714;SDS011;56981;53.532;49.398;2022-08-04T18:38:00;16.40;;;9.20;;
69714;SDS011;56981;53.532;49.398;2022-08-04T18:40:27;16.30;;;9.55;;
69714;SDS011;56981;53.532;49.398;2022-08-04T18:42:54;17.55;;;10.05;;
69714;SDS011;56981;53.532;49.398;2022-08-04T18:45:20;14.75;;;9.93;;
69714;SDS011;56981;53.532;49.398;2022-08-04T18:47:48;17.58;;;9.45;;
69714;SDS011;56981;53.532;49.398;2022-08-04T18:50:15;14.13;;;9.10;;
69714;SDS011;56981;53.532;49.398;2022-08-04T18:52:42;12.70;;;8.85;;
69714;SDS011;56981;53.532;49.398;2022-08-04T18:55:08;20.38;;;10.35;;
69714;SDS011;56981;53.532;49.398;2022-08-04T18:57:35;14.82;;;9.50;;
69714;SDS011;56981;53.532;49.398;2022-08-04T19:00:01;18.50;;;10.10;;
69714;SDS011;56981;53.532;49.398;2022-08-04T19:02:28;19.67;;;10.63;;
69714;SDS011;56981;53.532;49.398;2022-08-04T19:04:54;17.40;;;10.38;;
69714;SDS011;56981;53.532;49.398;2022-08-04T19:07:20;21.98;;;11.23;;
69714;SDS011;56981;53.532;49.398;2022-08-04T19:09:46;20.13;;;10.52;;
69714;SDS011;56981;53.532;49.398;2022-08-04T19:12:15;20.40;;;11.70;;
69714;SDS011;56981;53.532;49.398;2022-08-04T19:14:41;16.52;;;9.85;;
69714;SDS011;56981;53.532;49.398;2022-08-04T19:17:07;22.77;;;11.80;;
69714;SDS011;56981;53.532;49.398;2022-08-04T19:19:33;20.23;;;12.38;;
69714;SDS011;56981;53.532;49.398;2022-08-04T19:21:59;17.75;;;11.00;;
69714;SDS011;56981;53.532;49.398;2022-08-04T19:24:25;21.50;;;12.57;;
69714;SDS011;56981;53.532;49.398;2022-08-04T19:26:51;19.45;;;11.88;;
69714;SDS011;56981;53.532;49.398;2022-08-04T19:29:19;21.27;;;12.10;;
69714;SDS011;56981;53.532;49.398;2022-08-04T19:31:45;23.17;;;12.05;;
69714;SDS011;56981;53.532;49.398;2022-08-04T19:34:11;21.98;;;11.18;;
69714;SDS011;56981;53.532;49.398;2022-08-04T19:36:37;20.35;;;11.75;;
69714;SDS011;56981;53.532;49.398;2022-08-04T19:39:05;23.55;;;13.55;;
69714;SDS011;56981;53.532;49.398;2022-08-04T19:41:33;20.98;;;12.68;;
69714;SDS011;56981;53.532;49.398;2022-08-04T19:44:02;20.38;;;11.13;;
69714;SDS011;56981;53.532;49.398;2022-08-04T19:46:29;16.67;;;10.55;;
69714;SDS011;56981;53.532;49.398;2022-08-04T19:48:55;14.52;;;10.30;;
69714;SDS011;56981;53.532;49.398;2022-08-04T19:51:22;19.58;;;11.10;;
69714;SDS011;56981;53.532;49.398;2022-08-04T19:53:48;14.18;;;10.38;;